createdAt,value
2018-06-18T00:01:55.283Z,16.45
2018-06-18T00:04:24.393Z,16.72
2018-06-18T00:06:53.541Z,16.77
2018-06-18T00:09:22.665Z,16.67
2018-06-18T00:11:51.757Z,16.63
2018-06-18T00:14:20.850Z,16.61
2018-06-18T00:16:49.955Z,16.69
2018-06-18T00:19:19.073Z,16.43
2018-06-18T00:21:48.206Z,16.50
2018-06-18T00:24:17.314Z,16.50
2018-06-18T00:26:46.417Z,16.65
2018-06-18T00:29:15.597Z,16.38
2018-06-18T00:31:44.773Z,16.55
2018-06-18T00:34:13.892Z,16.46
2018-06-18T00:36:42.977Z,16.49
2018-06-18T00:39:12.085Z,16.19
2018-06-18T00:41:41.178Z,16.54
2018-06-18T00:44:10.273Z,16.65
2018-06-18T00:46:39.417Z,16.45
2018-06-18T00:49:08.477Z,16.47
2018-06-18T00:51:37.573Z,16.48
2018-06-18T00:54:06.679Z,16.47
2018-06-18T00:56:35.790Z,16.36
2018-06-18T00:59:04.933Z,16.48
2018-06-18T01:01:34.040Z,16.51
2018-06-18T01:04:03.149Z,16.70
2018-06-18T01:06:32.258Z,16.49
2018-06-18T01:09:01.385Z,16.60
2018-06-18T01:11:30.517Z,16.41
2018-06-18T01:13:59.602Z,16.40
2018-06-18T01:16:28.730Z,16.24
2018-06-18T01:18:57.822Z,16.43
2018-06-18T01:21:26.909Z,16.47
2018-06-18T01:23:59.525Z,16.35
2018-06-18T01:26:28.714Z,16.54
2018-06-18T01:28:58.123Z,16.37
2018-06-18T01:31:27.226Z,16.51
2018-06-18T01:33:59.810Z,16.39
2018-06-18T01:36:28.894Z,16.52
2018-06-18T01:38:58.006Z,16.66
2018-06-18T01:41:27.111Z,16.55
2018-06-18T01:43:56.217Z,16.60
2018-06-18T01:46:26.929Z,16.60
2018-06-18T01:48:56.017Z,16.62
2018-06-18T01:51:25.113Z,16.66
2018-06-18T01:53:54.209Z,16.79
2018-06-18T01:56:23.336Z,16.80
2018-06-18T01:58:52.437Z,16.78
2018-06-18T02:01:21.609Z,16.68
2018-06-18T02:03:50.725Z,16.45
2018-06-18T02:06:19.850Z,16.52
2018-06-18T02:08:48.966Z,16.63
2018-06-18T02:11:18.132Z,16.60
2018-06-18T02:13:47.326Z,16.55
2018-06-18T02:16:17.702Z,16.32
2018-06-18T02:18:46.776Z,16.64
2018-06-18T02:21:16.006Z,16.71
2018-06-18T02:23:45.116Z,16.74
2018-06-18T02:26:14.227Z,16.67
2018-06-18T02:28:48.637Z,16.67
2018-06-18T02:31:23.161Z,16.80
2018-06-18T02:33:57.410Z,16.82
2018-06-18T02:37:33.481Z,16.70
2018-06-18T02:40:07.994Z,16.41
2018-06-18T02:42:37.105Z,16.43
2018-06-18T02:45:06.205Z,16.28
2018-06-18T02:47:35.309Z,16.49
2018-06-18T02:50:04.447Z,16.71
2018-06-18T02:52:33.558Z,16.68
2018-06-18T02:55:02.667Z,16.82
2018-06-18T02:57:31.773Z,16.85
2018-06-18T03:00:00.909Z,16.80
2018-06-18T03:02:30.060Z,16.79
2018-06-18T03:04:59.158Z,16.54
2018-06-18T03:07:28.263Z,16.67
2018-06-18T03:09:57.363Z,16.45
2018-06-18T03:12:26.481Z,16.61
2018-06-18T03:14:55.579Z,16.56
2018-06-18T03:17:24.659Z,16.73
2018-06-18T03:19:59.278Z,16.81
2018-06-18T03:22:33.795Z,16.79
2018-06-18T03:25:08.285Z,16.80
2018-06-18T03:27:42.657Z,16.66
2018-06-18T03:30:11.767Z,16.78
2018-06-18T03:32:41.339Z,16.55
2018-06-18T03:35:10.713Z,16.60
2018-06-18T03:37:39.858Z,16.58
2018-06-18T03:40:09.178Z,16.71
2018-06-18T03:42:38.301Z,16.56
2018-06-18T03:45:11.157Z,16.57
2018-06-18T03:47:40.241Z,16.66
2018-06-18T03:50:09.343Z,16.70
2018-06-18T03:52:38.445Z,16.68
2018-06-18T03:55:12.357Z,16.77
2018-06-18T03:57:41.481Z,16.71
2018-06-18T04:00:10.937Z,16.57
2018-06-18T04:02:50.992Z,16.66
2018-06-18T04:05:25.450Z,16.69
2018-06-18T04:07:57.154Z,16.83
2018-06-18T04:10:32.814Z,16.64
2018-06-18T04:13:02.019Z,16.86
2018-06-18T04:15:31.286Z,16.90
2018-06-18T04:18:00.433Z,16.95
2018-06-18T04:20:42.511Z,16.68
2018-06-18T04:23:11.599Z,16.85
2018-06-18T04:25:40.713Z,16.92
2018-06-18T04:28:09.880Z,17.06
2018-06-18T04:30:38.985Z,17.02
2018-06-18T04:33:08.725Z,17.07
2018-06-18T04:35:37.852Z,17.11
2018-06-18T04:38:06.949Z,17.09
2018-06-18T04:40:36.055Z,17.09
2018-06-18T04:43:10.479Z,17.05
2018-06-18T04:45:42.393Z,17.15
2018-06-18T04:48:16.690Z,17.23
2018-06-18T04:50:51.061Z,17.19
2018-06-18T04:53:20.225Z,17.18
2018-06-18T04:55:49.374Z,17.21
2018-06-18T04:58:18.501Z,17.21
2018-06-18T05:01:11.998Z,17.17
2018-06-18T05:03:41.122Z,17.03
2018-06-18T05:06:10.249Z,17.26
2018-06-18T05:08:58.063Z,17.24
2018-06-18T05:11:27.191Z,17.15
2018-06-18T05:13:56.294Z,16.89
2018-06-18T05:16:25.450Z,17.13
2018-06-18T05:18:54.554Z,17.24
2018-06-18T05:21:23.668Z,17.25
2018-06-18T05:23:52.790Z,17.43
2018-06-18T05:26:22.859Z,17.31
2018-06-18T05:28:52.311Z,17.27
2018-06-18T05:31:21.514Z,17.40
2018-06-18T05:33:50.665Z,17.50
2018-06-18T05:36:19.761Z,17.54
2018-06-18T05:38:49.037Z,17.58
2018-06-18T05:41:18.153Z,17.58
2018-06-18T05:43:47.309Z,17.38
2018-06-18T05:46:16.447Z,17.41
2018-06-18T05:48:45.577Z,17.43
2018-06-18T05:51:14.677Z,17.56
2018-06-18T05:53:43.800Z,17.63
2018-06-18T05:56:12.941Z,17.65
2018-06-18T05:58:42.106Z,17.58
2018-06-18T06:01:11.222Z,17.73
2018-06-18T06:03:40.361Z,17.81
2018-06-18T06:06:09.568Z,17.88
2018-06-18T06:08:38.617Z,17.81
2018-06-18T06:11:07.852Z,17.75
2018-06-18T06:13:36.945Z,17.63
2018-06-18T06:16:06.106Z,17.81
2018-06-18T06:18:35.205Z,17.84
2018-06-18T06:21:07.723Z,17.83
2018-06-18T06:23:37.342Z,17.80
2018-06-18T06:26:06.500Z,17.98
2018-06-18T06:28:35.709Z,18.10
2018-06-18T06:31:04.853Z,18.02
2018-06-18T06:33:33.995Z,18.09
2018-06-18T06:36:03.677Z,18.03
2018-06-18T06:38:32.810Z,18.14
2018-06-18T06:41:01.938Z,18.20
2018-06-18T06:43:31.049Z,18.11
2018-06-18T06:46:00.170Z,18.21
2018-06-18T06:48:29.321Z,18.16
2018-06-18T06:50:58.417Z,18.27
2018-06-18T06:53:27.533Z,18.38
2018-06-18T06:55:56.631Z,18.43
2018-06-18T06:58:25.733Z,18.48
2018-06-18T07:00:54.831Z,18.31
2018-06-18T07:03:23.954Z,18.60
2018-06-18T07:05:53.085Z,18.63
2018-06-18T07:08:22.181Z,18.59
2018-06-18T07:10:51.294Z,18.60
2018-06-18T07:13:20.414Z,18.62
2018-06-18T07:15:49.556Z,18.63
2018-06-18T07:18:18.670Z,18.63
2018-06-18T07:20:47.790Z,18.69
2018-06-18T07:23:16.921Z,18.71
2018-06-18T07:25:46.048Z,18.81
2018-06-18T07:28:15.189Z,18.78
2018-06-18T07:30:44.284Z,18.87
2018-06-18T07:33:13.381Z,18.84
2018-06-18T07:35:42.470Z,18.90
2018-06-18T07:38:11.589Z,18.92
2018-06-18T07:40:40.686Z,18.88
2018-06-18T07:43:09.834Z,18.67
2018-06-18T07:45:39.035Z,18.95
2018-06-18T07:48:08.121Z,18.89
2018-06-18T07:50:37.221Z,19.04
2018-06-18T07:53:06.321Z,19.01
2018-06-18T07:55:35.425Z,19.01
2018-06-18T07:58:04.649Z,19.19
2018-06-18T08:00:33.770Z,19.17
2018-06-18T08:03:02.892Z,19.11
2018-06-18T08:05:31.990Z,19.30
2018-06-18T08:08:01.118Z,19.37
2018-06-18T08:10:30.277Z,19.30
2018-06-18T08:12:59.419Z,19.40
2018-06-18T08:15:28.520Z,19.37
2018-06-18T08:17:57.633Z,19.48
2018-06-18T08:20:26.743Z,19.48
2018-06-18T08:22:55.857Z,19.54
2018-06-18T08:25:24.977Z,19.73
2018-06-18T08:27:54.091Z,19.69
2018-06-18T08:30:23.173Z,19.90
2018-06-18T08:32:52.289Z,20.05
2018-06-18T08:35:21.451Z,20.04
2018-06-18T08:37:50.589Z,20.12
2018-06-18T08:40:19.742Z,20.13
2018-06-18T08:42:48.867Z,20.26
2018-06-18T08:45:18.030Z,20.33
2018-06-18T08:47:47.181Z,20.44
2018-06-18T08:50:21.433Z,20.45
2018-06-18T08:52:55.732Z,20.34
2018-06-18T08:55:30.081Z,20.56
2018-06-18T08:58:04.481Z,20.64
2018-06-18T09:00:38.738Z,20.59
2018-06-18T09:03:11.647Z,20.60
2018-06-18T09:05:43.041Z,20.69
2018-06-18T09:08:12.194Z,20.75
2018-06-18T09:10:41.325Z,20.84
2018-06-18T09:13:10.419Z,20.89
2018-06-18T09:15:39.541Z,21.03
2018-06-18T09:18:08.661Z,21.19
2018-06-18T09:20:37.870Z,21.24
2018-06-18T09:23:09.220Z,21.20
2018-06-18T09:28:10.630Z,21.43
2018-06-18T09:30:39.728Z,21.38
2018-06-18T09:33:08.838Z,21.49
2018-06-18T09:35:37.981Z,21.46
2018-06-18T09:38:07.089Z,21.24
2018-06-18T09:40:36.185Z,21.28
2018-06-18T09:43:05.323Z,21.37
2018-06-18T09:45:34.438Z,21.33
2018-06-18T09:48:03.567Z,21.56
2018-06-18T09:50:37.921Z,21.63
2018-06-18T09:53:12.499Z,21.62
2018-06-18T09:56:45.551Z,21.72
2018-06-18T09:59:20.017Z,21.59
2018-06-18T10:01:49.161Z,21.57
2018-06-18T10:04:18.291Z,21.31
2018-06-18T10:06:47.422Z,21.44
2018-06-18T10:09:16.522Z,21.46
2018-06-18T10:11:45.662Z,21.68
2018-06-18T10:14:14.770Z,21.52
2018-06-18T10:16:43.866Z,21.64
2018-06-18T10:19:13.024Z,21.66
2018-06-18T10:21:42.066Z,21.67
2018-06-18T10:24:11.276Z,21.55
2018-06-18T10:26:40.326Z,21.67
2018-06-18T10:29:09.437Z,21.70
2018-06-18T10:31:38.550Z,21.64
2018-06-18T10:34:12.806Z,21.60
2018-06-18T10:36:47.402Z,21.50
2018-06-18T10:39:21.872Z,21.43
2018-06-18T10:41:56.538Z,21.41
2018-06-18T10:44:25.631Z,21.56
2018-06-18T10:46:54.726Z,21.61
2018-06-18T10:49:23.828Z,21.63
2018-06-18T10:51:52.920Z,21.87
2018-06-18T10:54:22.014Z,22.01
2018-06-18T10:56:51.167Z,22.19
2018-06-18T10:59:20.281Z,22.29
2018-06-18T11:01:49.402Z,22.44
2018-06-18T11:04:23.790Z,22.71
2018-06-18T11:06:52.918Z,23.00
2018-06-18T11:09:22.989Z,22.82
2018-06-18T11:11:52.904Z,23.14
2018-06-18T11:14:22.050Z,23.03
2018-06-18T11:17:53.898Z,23.04
2018-06-18T11:20:28.185Z,23.07
2018-06-18T11:23:02.697Z,23.27
2018-06-18T11:25:37.001Z,23.18
2018-06-18T11:28:06.127Z,23.06
2018-06-18T11:30:35.285Z,23.06
2018-06-18T11:33:04.472Z,23.04
2018-06-18T11:35:33.589Z,23.00
2018-06-18T11:38:02.689Z,22.81
2018-06-18T11:40:31.829Z,22.76
2018-06-18T11:43:00.947Z,22.90
2018-06-18T11:45:30.057Z,22.61
2018-06-18T11:48:09.881Z,22.63
2018-06-18T11:50:39.006Z,22.59
2018-06-18T11:53:08.102Z,22.42
2018-06-18T11:55:38.254Z,22.48
2018-06-18T11:58:07.354Z,22.38
2018-06-18T12:00:41.746Z,22.29
2018-06-18T12:03:16.174Z,22.41
2018-06-18T12:05:50.511Z,22.24
2018-06-18T12:08:24.739Z,22.46
2018-06-18T12:10:53.867Z,22.45
2018-06-18T12:13:23.038Z,22.36
2018-06-18T12:15:52.132Z,22.33
2018-06-18T12:18:21.242Z,22.35
2018-06-18T12:20:50.366Z,22.27
2018-06-18T12:23:19.445Z,22.18
2018-06-18T12:25:48.587Z,22.29
2018-06-18T12:28:17.714Z,22.26
2018-06-18T12:30:46.812Z,22.18
2018-06-18T12:33:15.907Z,22.22
2018-06-18T12:35:45.035Z,22.17
2018-06-18T12:38:14.171Z,22.24
2018-06-18T12:40:43.257Z,22.28
2018-06-18T12:43:13.434Z,22.26
2018-06-18T12:45:48.834Z,22.20
2018-06-18T12:48:23.372Z,22.31
2018-06-18T12:50:57.616Z,22.33
2018-06-18T12:53:32.145Z,22.32
2018-06-18T12:56:06.569Z,22.32
2018-06-18T12:58:35.661Z,22.29
2018-06-18T13:01:04.829Z,22.21
2018-06-18T13:03:33.918Z,22.19
2018-06-18T13:06:06.901Z,22.23
2018-06-18T13:08:36.009Z,22.29
2018-06-18T13:11:05.110Z,22.33
2018-06-18T13:13:34.360Z,22.36
2018-06-18T13:16:03.465Z,22.34
2018-06-18T13:18:32.561Z,22.33
2018-06-18T13:21:01.668Z,22.15
2018-06-18T13:23:30.753Z,22.29
2018-06-18T13:25:59.859Z,22.20
2018-06-18T13:28:28.970Z,22.23
2018-06-18T13:30:58.105Z,22.26
2018-06-18T13:33:27.222Z,22.38
2018-06-18T13:35:56.318Z,22.46
2018-06-18T13:38:30.569Z,22.44
2018-06-18T13:41:05.030Z,22.34
2018-06-18T13:43:43.697Z,22.27
2018-06-18T13:46:30.206Z,22.29
2018-06-18T13:48:59.389Z,22.21
2018-06-18T13:51:29.018Z,21.93
2018-06-18T13:53:58.812Z,21.78
2018-06-18T13:56:28.233Z,21.58
2018-06-18T13:58:57.630Z,21.36
2018-06-18T14:01:26.717Z,21.28
2018-06-18T14:03:55.825Z,21.40
2018-06-18T14:06:24.920Z,21.30
2018-06-18T14:08:54.033Z,21.30
2018-06-18T14:11:23.130Z,21.49
2018-06-18T14:13:52.355Z,21.48
2018-06-18T14:16:21.393Z,21.63
2018-06-18T14:18:50.489Z,21.68
2018-06-18T14:21:19.592Z,21.81
2018-06-18T14:23:48.726Z,21.83
2018-06-18T14:26:17.822Z,21.92
2018-06-18T14:28:46.913Z,21.70
2018-06-18T14:31:21.330Z,21.80
2018-06-18T14:33:55.782Z,22.01
2018-06-18T14:36:30.294Z,22.06
2018-06-18T14:39:04.848Z,22.01
2018-06-18T14:41:34.072Z,22.09
2018-06-18T14:44:03.393Z,22.08
2018-06-18T14:46:33.592Z,21.81
2018-06-18T14:49:03.049Z,21.46
2018-06-18T14:51:32.213Z,21.62
2018-06-18T14:54:01.639Z,21.70
2018-06-18T14:56:34.902Z,21.75
2018-06-18T14:59:12.267Z,21.73
2018-06-18T15:01:41.395Z,21.69
2018-06-18T15:04:10.494Z,21.77
2018-06-18T15:06:39.613Z,21.79
2018-06-18T15:09:10.764Z,21.71
2018-06-18T15:11:40.231Z,21.76
2018-06-18T15:14:09.386Z,21.79
2018-06-18T15:16:38.538Z,21.78
2018-06-18T15:19:07.660Z,21.92
2018-06-18T15:21:41.057Z,21.91
2018-06-18T15:24:13.372Z,21.96
2018-06-18T15:26:42.513Z,21.94
2018-06-18T15:29:11.890Z,21.98
2018-06-18T15:31:41.026Z,22.04
2018-06-18T15:34:10.153Z,22.13
2018-06-18T15:36:39.261Z,22.28
2018-06-18T15:39:09.954Z,22.28
2018-06-18T15:41:39.054Z,22.21
2018-06-18T15:44:08.291Z,22.26
2018-06-18T15:46:37.313Z,22.11
2018-06-18T15:49:06.481Z,22.24
2018-06-18T15:51:35.610Z,22.25
2018-06-18T15:54:04.722Z,22.29
2018-06-18T15:56:33.862Z,22.49
2018-06-18T15:59:03.133Z,22.59
2018-06-18T16:01:32.487Z,22.61
2018-06-18T16:04:05.585Z,22.84
2018-06-18T16:06:34.673Z,22.69
2018-06-18T16:09:04.676Z,22.73
2018-06-18T16:11:33.784Z,22.88
2018-06-18T16:14:02.884Z,22.91
2018-06-18T16:16:32.024Z,22.90
2018-06-18T16:19:01.133Z,23.04
2018-06-18T16:21:30.237Z,22.91
2018-06-18T16:23:59.356Z,22.85
2018-06-18T16:26:28.437Z,22.96
2018-06-18T16:28:57.541Z,22.87
2018-06-18T16:31:26.753Z,23.07
2018-06-18T16:33:55.857Z,23.33
2018-06-18T16:36:25.030Z,23.37
2018-06-18T16:38:54.178Z,23.47
2018-06-18T16:41:23.303Z,23.36
2018-06-18T16:43:52.461Z,23.30
2018-06-18T16:46:21.632Z,23.33
2018-06-18T16:48:50.858Z,23.47
2018-06-18T16:51:20.010Z,23.61
2018-06-18T16:53:49.136Z,23.66
2018-06-18T16:56:19.393Z,23.52
2018-06-18T16:58:48.602Z,23.48
2018-06-18T17:01:17.830Z,23.50
2018-06-18T17:03:47.292Z,23.43
2018-06-18T17:06:16.457Z,23.40
2018-06-18T17:08:45.557Z,23.40
2018-06-18T17:11:14.720Z,23.25
2018-06-18T17:13:43.817Z,23.21
2018-06-18T17:16:13.006Z,23.36
2018-06-18T17:18:42.145Z,23.25
2018-06-18T17:21:11.294Z,23.19
2018-06-18T17:23:40.414Z,23.18
2018-06-18T17:26:09.558Z,23.29
2018-06-18T17:28:38.659Z,23.40
2018-06-18T17:31:08.087Z,23.47
2018-06-18T17:33:37.460Z,23.38
2018-06-18T17:36:06.964Z,23.25
2018-06-18T17:38:36.061Z,23.26
2018-06-18T17:41:05.417Z,23.16
2018-06-18T17:43:36.541Z,23.27
2018-06-18T17:46:05.685Z,23.24
2018-06-18T17:48:34.854Z,23.20
2018-06-18T17:51:03.957Z,23.05
2018-06-18T17:53:33.105Z,23.04
2018-06-18T17:56:02.210Z,23.11
2018-06-18T17:58:31.418Z,23.11
2018-06-18T18:01:00.508Z,23.08
2018-06-18T18:03:29.606Z,22.86
2018-06-18T18:05:58.787Z,22.94
2018-06-18T18:08:27.864Z,22.96
2018-06-18T18:10:56.954Z,22.83
2018-06-18T18:13:26.215Z,22.85
2018-06-18T18:15:55.282Z,22.85
2018-06-18T18:18:24.462Z,22.84
2018-06-18T18:20:53.548Z,22.81
2018-06-18T18:23:22.662Z,22.92
2018-06-18T18:25:51.898Z,22.90
2018-06-18T18:28:20.993Z,22.84
2018-06-18T18:30:50.209Z,22.81
2018-06-18T18:33:19.373Z,22.87
2018-06-18T18:35:48.590Z,22.81
2018-06-18T18:38:17.686Z,22.86
2018-06-18T18:40:46.855Z,22.95
2018-06-18T18:43:15.973Z,22.72
2018-06-18T18:45:45.757Z,22.67
2018-06-18T18:48:14.910Z,22.63
2018-06-18T18:50:44.002Z,22.63
2018-06-18T18:53:13.106Z,22.61
2018-06-18T18:55:56.921Z,22.57
2018-06-18T18:59:36.540Z,22.56
2018-06-18T19:02:05.729Z,22.42
2018-06-18T19:04:54.407Z,22.38
2018-06-18T19:07:31.310Z,22.42
2018-06-18T19:10:09.694Z,22.45
2018-06-18T19:12:39.093Z,22.41
2018-06-18T19:15:08.813Z,22.37
2018-06-18T19:17:38.190Z,22.42
2018-06-18T19:20:12.798Z,22.28
2018-06-18T19:22:46.885Z,22.22
2018-06-18T19:25:16.150Z,22.26
2018-06-18T19:27:45.186Z,22.15
2018-06-18T19:30:14.409Z,22.06
2018-06-18T19:32:45.637Z,21.98
2018-06-18T19:35:14.766Z,21.98
2018-06-18T19:37:43.848Z,22.01
2018-06-18T19:40:12.957Z,21.97
2018-06-18T19:42:42.166Z,21.93
2018-06-18T19:45:12.842Z,21.91
2018-06-18T19:47:48.590Z,21.84
2018-06-18T19:50:18.233Z,21.74
2018-06-18T19:52:47.349Z,21.75
2018-06-18T19:55:22.541Z,21.70
2018-06-18T19:57:51.693Z,21.68
2018-06-18T20:00:22.159Z,21.67
2018-06-18T20:02:51.285Z,21.71
2018-06-18T20:05:20.507Z,21.59
2018-06-18T20:07:59.133Z,21.63
2018-06-18T20:10:28.451Z,21.69
2018-06-18T20:12:57.562Z,21.55
2018-06-18T20:15:26.895Z,21.67
2018-06-18T20:17:55.996Z,21.61
2018-06-18T20:20:25.094Z,21.56
2018-06-18T20:22:54.249Z,21.58
2018-06-18T20:25:26.714Z,21.52
2018-06-18T20:27:55.765Z,21.44
2018-06-18T20:30:30.994Z,21.52
2018-06-18T20:33:00.225Z,21.44
2018-06-18T20:35:33.647Z,21.43
2018-06-18T20:38:02.752Z,21.43
2018-06-18T20:40:31.942Z,21.54
2018-06-18T20:43:01.029Z,21.55
2018-06-18T20:45:30.524Z,21.54
2018-06-18T20:47:59.581Z,21.59
2018-06-18T20:50:28.741Z,21.56
2018-06-18T20:52:57.846Z,21.58
2018-06-18T20:55:26.941Z,21.55
2018-06-18T20:57:56.195Z,21.59
2018-06-18T21:00:25.301Z,21.49
2018-06-18T21:02:54.571Z,21.56
2018-06-18T21:05:23.816Z,21.53
2018-06-18T21:07:52.960Z,21.49
2018-06-18T21:10:22.118Z,21.42
2018-06-18T21:12:51.282Z,21.39
2018-06-18T21:15:20.599Z,21.35
2018-06-18T21:17:49.698Z,21.44
2018-06-18T21:20:18.874Z,21.28
2018-06-18T21:22:48.034Z,21.24
2018-06-18T21:25:17.154Z,21.23
2018-06-18T21:27:46.301Z,21.20
2018-06-18T21:30:15.419Z,21.15
2018-06-18T21:32:44.509Z,21.14
2018-06-18T21:35:14.017Z,21.18
2018-06-18T21:37:43.108Z,21.14
2018-06-18T21:40:12.266Z,21.11
2018-06-18T21:42:41.346Z,21.02
2018-06-18T21:45:17.581Z,21.09
2018-06-18T21:47:47.265Z,21.15
2018-06-18T21:50:16.709Z,21.05
2018-06-18T21:52:45.925Z,21.00
2018-06-18T21:55:15.378Z,20.98
2018-06-18T21:57:44.565Z,20.94
2018-06-18T22:00:18.761Z,20.99
2018-06-18T22:02:48.462Z,20.95
2018-06-18T22:05:17.569Z,20.93
2018-06-18T22:07:46.729Z,20.82
2018-06-18T22:10:15.927Z,20.82
2018-06-18T22:12:45.032Z,20.76
2018-06-18T22:15:14.186Z,20.77
2018-06-18T22:17:43.325Z,20.73
2018-06-18T22:20:12.478Z,20.69
2018-06-18T22:22:41.586Z,20.70
2018-06-18T22:25:10.717Z,20.57
2018-06-18T22:27:39.897Z,20.49
2018-06-18T22:30:08.981Z,20.48
2018-06-18T22:32:38.141Z,20.37
2018-06-18T22:35:07.478Z,20.46
2018-06-18T22:37:36.650Z,20.43
2018-06-18T22:40:05.785Z,20.36
2018-06-18T22:42:34.875Z,20.39
2018-06-18T22:45:04.247Z,20.24
2018-06-18T22:47:33.393Z,20.36
2018-06-18T22:50:02.529Z,20.25
2018-06-18T22:52:31.661Z,20.39
2018-06-18T22:55:00.755Z,20.34
2018-06-18T22:57:29.876Z,20.41
2018-06-18T22:59:58.989Z,20.33
2018-06-18T23:02:31.064Z,20.39
2018-06-18T23:05:00.169Z,20.27
2018-06-18T23:07:29.337Z,20.31
2018-06-18T23:09:58.457Z,20.23
2018-06-18T23:12:34.755Z,20.31
2018-06-18T23:15:03.986Z,20.37
2018-06-18T23:17:33.085Z,20.38
2018-06-18T23:20:02.476Z,20.30
2018-06-18T23:22:33.155Z,20.28
2018-06-18T23:25:02.281Z,20.19
2018-06-18T23:27:31.486Z,20.23
2018-06-18T23:30:02.023Z,20.17
2018-06-18T23:32:31.146Z,20.17
2018-06-18T23:35:00.320Z,20.11
2018-06-18T23:37:29.562Z,20.09
2018-06-18T23:39:58.641Z,20.01
2018-06-18T23:42:27.745Z,20.08
2018-06-18T23:44:56.894Z,19.95
2018-06-18T23:47:26.010Z,20.01
2018-06-18T23:49:55.121Z,19.91
2018-06-18T23:52:24.293Z,20.00
2018-06-18T23:54:53.533Z,19.94
2018-06-18T23:57:22.629Z,19.91
2018-06-18T23:59:51.830Z,19.83
